sensor_id;sensor_type;location;lat;lon;timestamp;pressure;altitude;pressure_sealevel;temperature;humidity
31299;BME280;17927;52.350;13.402;2023-03-17T00:00:27;101387.50;;;9.42;36.43
31299;BME280;17927;52.350;13.402;2023-03-17T00:02:53;101393.16;;;9.39;36.27
31299;BME280;17927;52.350;13.402;2023-03-17T00:05:22;101394.25;;;9.37;36.85
31299;BME280;17927;52.350;13.402;2023-03-17T00:07:49;101400.75;;;9.34;36.79
31299;BME280;17927;52.350;13.402;2023-03-17T00:10:25;101393.88;;;9.30;36.63
31299;BME280;17927;52.350;13.402;2023-03-17T00:12:52;101401.22;;;9.28;36.88
31299;BME280;17927;52.350;13.402;2023-03-17T00:15:19;101403.91;;;9.28;36.62
31299;BME280;17927;52.350;13.402;2023-03-17T00:17:47;101392.50;;;9.24;36.57
31299;BME280;17927;52.350;13.402;2023-03-17T00:20:28;101399.84;;;9.22;36.80
31299;BME280;17927;52.350;13.402;2023-03-17T00:22:58;101401.81;;;9.20;37.11
31299;BME280;17927;52.350;13.402;2023-03-17T00:25:28;101398.25;;;9.20;37.12
31299;BME280;17927;52.350;13.402;2023-03-17T00:27:55;101395.69;;;9.18;36.73
31299;BME280;17927;52.350;13.402;2023-03-17T00:30:22;101386.72;;;9.18;36.90
31299;BME280;17927;52.350;13.402;2023-03-17T00:32:49;101379.63;;;9.17;36.86
31299;BME280;17927;52.350;13.402;2023-03-17T00:35:22;101369.94;;;9.14;37.18
31299;BME280;17927;52.350;13.402;2023-03-17T00:37:50;101367.47;;;9.11;37.06
31299;BME280;17927;52.350;13.402;2023-03-17T00:40:19;101369.34;;;9.10;36.99
31299;BME280;17927;52.350;13.402;2023-03-17T00:42:45;101362.31;;;9.08;36.94
31299;BME280;17927;52.350;13.402;2023-03-17T00:45:11;101361.47;;;9.07;37.13
31299;BME280;17927;52.350;13.402;2023-03-17T00:47:36;101351.78;;;9.05;36.93
31299;BME280;17927;52.350;13.402;2023-03-17T00:50:03;101352.75;;;9.04;37.04
31299;BME280;17927;52.350;13.402;2023-03-17T00:52:29;101342.09;;;9.02;37.54
31299;BME280;17927;52.350;13.402;2023-03-17T00:54:54;101338.56;;;9.02;37.15
31299;BME280;17927;52.350;13.402;2023-03-17T00:57:19;101333.25;;;9.00;37.40
31299;BME280;17927;52.350;13.402;2023-03-17T00:59:44;101324.34;;;8.99;37.66
31299;BME280;17927;52.350;13.402;2023-03-17T01:02:10;101316.34;;;8.98;37.49
31299;BME280;17927;52.350;13.402;2023-03-17T01:04:36;101314.63;;;8.97;37.38
31299;BME280;17927;52.350;13.402;2023-03-17T01:07:01;101310.97;;;8.98;37.55
31299;BME280;17927;52.350;13.402;2023-03-17T01:09:27;101317.31;;;8.97;37.49
31299;BME280;17927;52.350;13.402;2023-03-17T01:11:53;101320.03;;;8.97;37.84
31299;BME280;17927;52.350;13.402;2023-03-17T01:14:19;101321.00;;;8.96;37.46
31299;BME280;17927;52.350;13.402;2023-03-17T01:16:45;101304.97;;;8.94;37.79
31299;BME280;17927;52.350;13.402;2023-03-17T01:19:12;101308.63;;;8.93;37.80
31299;BME280;17927;52.350;13.402;2023-03-17T01:21:37;101311.22;;;8.95;37.86
31299;BME280;17927;52.350;13.402;2023-03-17T01:24:03;101313.03;;;8.94;37.94
31299;BME280;17927;52.350;13.402;2023-03-17T01:26:29;101320.16;;;8.95;37.96
31299;BME280;17927;52.350;13.402;2023-03-17T01:28:54;101311.31;;;8.93;37.88
31299;BME280;17927;52.350;13.402;2023-03-17T01:31:19;101310.72;;;8.90;37.79
31299;BME280;17927;52.350;13.402;2023-03-17T01:33:45;101309.84;;;8.89;37.91
31299;BME280;17927;52.350;13.402;2023-03-17T01:36:10;101309.13;;;8.87;38.17
31299;BME280;17927;52.350;13.402;2023-03-17T01:38:35;101301.03;;;8.87;37.80
31299;BME280;17927;52.350;13.402;2023-03-17T01:41:01;101294.91;;;8.85;37.95
31299;BME280;17927;52.350;13.402;2023-03-17T01:43:28;101285.94;;;8.84;38.07
31299;BME280;17927;52.350;13.402;2023-03-17T01:46:20;101279.94;;;8.81;38.23
31299;BME280;17927;52.350;13.402;2023-03-17T01:48:52;101290.09;;;8.77;38.59
31299;BME280;17927;52.350;13.402;2023-03-17T01:51:24;101276.75;;;8.76;38.32
31299;BME280;17927;52.350;13.402;2023-03-17T01:53:51;101266.19;;;8.73;38.36
31299;BME280;17927;52.350;13.402;2023-03-17T01:56:18;101263.63;;;8.71;38.46
31299;BME280;17927;52.350;13.402;2023-03-17T01:58:45;101271.72;;;8.71;38.61
31299;BME280;17927;52.350;13.402;2023-03-17T02:01:13;101262.78;;;8.71;38.67
31299;BME280;17927;52.350;13.402;2023-03-17T02:03:39;101261.06;;;8.70;38.32
31299;BME280;17927;52.350;13.402;2023-03-17T02:06:06;101256.75;;;8.67;38.50
31299;BME280;17927;52.350;13.402;2023-03-17T02:08:32;101264.09;;;8.65;38.49
31299;BME280;17927;52.350;13.402;2023-03-17T02:10:57;101259.72;;;8.64;38.65
31299;BME280;17927;52.350;13.402;2023-03-17T02:13:23;101246.47;;;8.61;38.80
31299;BME280;17927;52.350;13.402;2023-03-17T02:15:50;101243.88;;;8.59;38.94
31299;BME280;17927;52.350;13.402;2023-03-17T02:18:17;101246.56;;;8.59;38.74
31299;BME280;17927;52.350;13.402;2023-03-17T02:23:14;101246.94;;;8.55;38.91
31299;BME280;17927;52.350;13.402;2023-03-17T02:25:43;101248.78;;;8.54;38.95
31299;BME280;17927;52.350;13.402;2023-03-17T02:28:14;101244.47;;;8.51;39.18
31299;BME280;17927;52.350;13.402;2023-03-17T02:30:41;101248.13;;;8.50;38.79
31299;BME280;17927;52.350;13.402;2023-03-17T02:33:07;101241.91;;;8.50;38.90
31299;BME280;17927;52.350;13.402;2023-03-17T02:35:32;101241.03;;;8.49;38.93
31299;BME280;17927;52.350;13.402;2023-03-17T02:37:57;101238.47;;;8.48;39.23
31299;BME280;17927;52.350;13.402;2023-03-17T02:40:23;101239.34;;;8.48;39.26
31299;BME280;17927;52.350;13.402;2023-03-17T02:42:48;101235.78;;;8.48;39.36
31299;BME280;17927;52.350;13.402;2023-03-17T02:45:14;101237.59;;;8.47;39.21
31299;BME280;17927;52.350;13.402;2023-03-17T02:47:39;101236.66;;;8.48;39.36
31299;BME280;17927;52.350;13.402;2023-03-17T02:50:06;101234.91;;;8.47;39.11
31299;BME280;17927;52.350;13.402;2023-03-17T02:52:31;101239.34;;;8.48;39.14
31299;BME280;17927;52.350;13.402;2023-03-17T02:54:56;101231.28;;;8.48;39.22
31299;BME280;17927;52.350;13.402;2023-03-17T02:57:22;101235.66;;;8.49;39.12
31299;BME280;17927;52.350;13.402;2023-03-17T02:59:47;101232.94;;;8.49;39.36
31299;BME280;17927;52.350;13.402;2023-03-17T03:02:13;101235.66;;;8.49;39.59
31299;BME280;17927;52.350;13.402;2023-03-17T03:04:38;101225.88;;;8.48;39.42
31299;BME280;17927;52.350;13.402;2023-03-17T03:07:04;101224.88;;;8.49;39.25
31299;BME280;17927;52.350;13.402;2023-03-17T03:09:29;101227.56;;;8.49;39.37
31299;BME280;17927;52.350;13.402;2023-03-17T03:11:55;101230.16;;;8.51;39.62
31299;BME280;17927;52.350;13.402;2023-03-17T03:14:21;101233.69;;;8.51;39.19
31299;BME280;17927;52.350;13.402;2023-03-17T03:16:46;101230.16;;;8.51;39.31
31299;BME280;17927;52.350;13.402;2023-03-17T03:19:11;101231.00;;;8.51;39.23
31299;BME280;17927;52.350;13.402;2023-03-17T03:21:37;101234.56;;;8.52;39.33
31299;BME280;17927;52.350;13.402;2023-03-17T03:24:03;101238.09;;;8.52;39.68
31299;BME280;17927;52.350;13.402;2023-03-17T03:26:28;101246.19;;;8.52;39.36
31299;BME280;17927;52.350;13.402;2023-03-17T03:28:53;101249.75;;;8.53;39.50
31299;BME280;17927;52.350;13.402;2023-03-17T03:31:21;101260.53;;;8.53;39.57
31299;BME280;17927;52.350;13.402;2023-03-17T03:33:46;101254.16;;;8.54;39.52
31299;BME280;17927;52.350;13.402;2023-03-17T03:36:12;101257.72;;;8.55;39.61
31299;BME280;17927;52.350;13.402;2023-03-17T03:38:37;101251.34;;;8.56;39.60
31299;BME280;17927;52.350;13.402;2023-03-17T03:41:02;101235.19;;;8.56;39.68
31299;BME280;17927;52.350;13.402;2023-03-17T03:43:28;101236.06;;;8.56;39.64
31299;BME280;17927;52.350;13.402;2023-03-17T03:45:53;101238.75;;;8.56;39.75
31299;BME280;17927;52.350;13.402;2023-03-17T03:48:19;101246.84;;;8.56;39.72
31299;BME280;17927;52.350;13.402;2023-03-17T03:50:44;101245.97;;;8.56;39.47
31299;BME280;17927;52.350;13.402;2023-03-17T03:53:10;101238.00;;;8.54;39.42
31299;BME280;17927;52.350;13.402;2023-03-17T03:55:35;101242.41;;;8.55;39.69
31299;BME280;17927;52.350;13.402;2023-03-17T03:58:00;101232.50;;;8.56;39.36
31299;BME280;17927;52.350;13.402;2023-03-17T04:00:25;101227.25;;;8.54;39.42
31299;BME280;17927;52.350;13.402;2023-03-17T04:02:52;101237.88;;;8.56;39.23
31299;BME280;17927;52.350;13.402;2023-03-17T04:05:17;101228.09;;;8.55;39.47
31299;BME280;17927;52.350;13.402;2023-03-17T04:07:44;101238.84;;;8.55;39.59
31299;BME280;17927;52.350;13.402;2023-03-17T04:10:10;101229.06;;;8.53;39.53
31299;BME280;17927;52.350;13.402;2023-03-17T04:12:36;101225.63;;;8.51;39.55
31299;BME280;17927;52.350;13.402;2023-03-17T04:15:02;101230.16;;;8.51;39.26
31299;BME280;17927;52.350;13.402;2023-03-17T04:17:28;101230.25;;;8.49;39.37
31299;BME280;17927;52.350;13.402;2023-03-17T04:19:53;101220.50;;;8.48;39.42
31299;BME280;17927;52.350;13.402;2023-03-17T04:22:18;101223.25;;;8.47;39.36
31299;BME280;17927;52.350;13.402;2023-03-17T04:24:44;101221.53;;;8.46;39.41
31299;BME280;17927;52.350;13.402;2023-03-17T04:27:10;101224.13;;;8.47;39.48
31299;BME280;17927;52.350;13.402;2023-03-17T04:29:35;101214.34;;;8.46;39.44
31299;BME280;17927;52.350;13.402;2023-03-17T04:32:02;101208.06;;;8.46;39.64
31299;BME280;17927;52.350;13.402;2023-03-17T04:34:27;101208.94;;;8.46;39.65
31299;BME280;17927;52.350;13.402;2023-03-17T04:36:53;101212.50;;;8.47;39.36
31299;BME280;17927;52.350;13.402;2023-03-17T04:39:18;101210.75;;;8.46;39.54
31299;BME280;17927;52.350;13.402;2023-03-17T04:41:44;101202.69;;;8.46;39.27
31299;BME280;17927;52.350;13.402;2023-03-17T04:44:10;101220.78;;;8.44;39.25
31299;BME280;17927;52.350;13.402;2023-03-17T04:46:35;101208.44;;;8.41;39.37
31299;BME280;17927;52.350;13.402;2023-03-17T04:49:01;101210.38;;;8.39;39.34
31299;BME280;17927;52.350;13.402;2023-03-17T04:51:26;101214.03;;;8.38;39.51
31299;BME280;17927;52.350;13.402;2023-03-17T04:53:52;101201.69;;;8.35;39.42
31299;BME280;17927;52.350;13.402;2023-03-17T04:56:18;101208.88;;;8.35;39.43
31299;BME280;17927;52.350;13.402;2023-03-17T04:58:43;101202.78;;;8.33;39.61
31299;BME280;17927;52.350;13.402;2023-03-17T05:01:09;101202.88;;;8.31;39.58
31299;BME280;17927;52.350;13.402;2023-03-17T05:03:34;101200.34;;;8.30;39.64
31299;BME280;17927;52.350;13.402;2023-03-17T05:06:00;101194.94;;;8.30;39.81
31299;BME280;17927;52.350;13.402;2023-03-17T05:08:26;101206.56;;;8.30;39.54
31299;BME280;17927;52.350;13.402;2023-03-17T05:10:53;101192.34;;;8.28;39.93
31299;BME280;17927;52.350;13.402;2023-03-17T05:13:19;101181.72;;;8.27;39.47
31299;BME280;17927;52.350;13.402;2023-03-17T05:15:51;101183.53;;;8.26;39.87
31299;BME280;17927;52.350;13.402;2023-03-17T05:18:18;101177.31;;;8.26;39.69
31299;BME280;17927;52.350;13.402;2023-03-17T05:20:43;101181.72;;;8.27;39.77
31299;BME280;17927;52.350;13.402;2023-03-17T05:23:09;101179.78;;;8.29;39.88
31299;BME280;17927;52.350;13.402;2023-03-17T05:25:35;101185.91;;;8.31;39.80
31299;BME280;17927;52.350;13.402;2023-03-17T05:28:00;101191.16;;;8.32;39.67
31299;BME280;17927;52.350;13.402;2023-03-17T05:30:26;101192.88;;;8.33;39.79
31299;BME280;17927;52.350;13.402;2023-03-17T05:32:51;101199.00;;;8.35;39.87
31299;BME280;17927;52.350;13.402;2023-03-17T05:35:17;101184.56;;;8.36;39.92
31299;BME280;17927;52.350;13.402;2023-03-17T05:37:43;101178.22;;;8.37;39.65
31299;BME280;17927;52.350;13.402;2023-03-17T05:40:09;101172.69;;;8.39;39.84
31299;BME280;17927;52.350;13.402;2023-03-17T05:42:35;101184.19;;;8.41;39.72
31299;BME280;17927;52.350;13.402;2023-03-17T05:45:01;101195.72;;;8.43;39.83
31299;BME280;17927;52.350;13.402;2023-03-17T05:47:27;101198.41;;;8.43;39.69
31299;BME280;17927;52.350;13.402;2023-03-17T05:49:52;101185.78;;;8.44;39.74
31299;BME280;17927;52.350;13.402;2023-03-17T05:52:18;101198.28;;;8.45;39.55
31299;BME280;17927;52.350;13.402;2023-03-17T05:54:44;101197.44;;;8.44;39.74
31299;BME280;17927;52.350;13.402;2023-03-17T05:57:11;101203.66;;;8.45;39.44
31299;BME280;17927;52.350;13.402;2023-03-17T05:59:37;101208.22;;;8.44;39.57
31299;BME280;17927;52.350;13.402;2023-03-17T06:02:02;101202.81;;;8.44;39.46
31299;BME280;17927;52.350;13.402;2023-03-17T06:04:27;101211.75;;;8.45;39.65
31299;BME280;17927;52.350;13.402;2023-03-17T06:06:52;101208.06;;;8.46;39.79
31299;BME280;17927;52.350;13.402;2023-03-17T06:09:18;101188.38;;;8.45;39.91
31299;BME280;17927;52.350;13.402;2023-03-17T06:11:43;101188.38;;;8.45;39.85
31299;BME280;17927;52.350;13.402;2023-03-17T06:14:09;101174.19;;;8.43;39.50
31299;BME280;17927;52.350;13.402;2023-03-17T06:16:34;101173.06;;;8.46;39.62
31299;BME280;17927;52.350;13.402;2023-03-17T06:18:59;101174.78;;;8.47;39.76
31299;BME280;17927;52.350;13.402;2023-03-17T06:21:25;101184.47;;;8.49;39.76
31299;BME280;17927;52.350;13.402;2023-03-17T06:23:51;101184.38;;;8.51;39.79
31299;BME280;17927;52.350;13.402;2023-03-17T06:26:16;101188.78;;;8.52;39.70
31299;BME280;17927;52.350;13.402;2023-03-17T06:28:41;101198.59;;;8.53;39.56
31299;BME280;17927;52.350;13.402;2023-03-17T06:31:06;101181.47;;;8.54;39.50
31299;BME280;17927;52.350;13.402;2023-03-17T06:33:33;101192.09;;;8.56;39.77
31299;BME280;17927;52.350;13.402;2023-03-17T06:35:58;101185.75;;;8.57;39.75
31299;BME280;17927;52.350;13.402;2023-03-17T06:38:24;101181.09;;;8.59;39.52
31299;BME280;17927;52.350;13.402;2023-03-17T06:40:49;101175.72;;;8.59;40.00
31299;BME280;17927;52.350;13.402;2023-03-17T06:43:15;101175.34;;;8.63;39.49
31299;BME280;17927;52.350;13.402;2023-03-17T06:45:43;101184.16;;;8.65;39.69
31299;BME280;17927;52.350;13.402;2023-03-17T06:48:08;101184.91;;;8.67;39.61
31299;BME280;17927;52.350;13.402;2023-03-17T06:50:34;101180.13;;;8.71;39.73
31299;BME280;17927;52.350;13.402;2023-03-17T06:52:59;101182.34;;;8.77;39.71
31299;BME280;17927;52.350;13.402;2023-03-17T06:55:24;101176.69;;;8.80;39.91
31299;BME280;17927;52.350;13.402;2023-03-17T06:57:49;101176.47;;;8.83;39.51
31299;BME280;17927;52.350;13.402;2023-03-17T07:00:15;101167.16;;;8.88;39.77
31299;BME280;17927;52.350;13.402;2023-03-17T07:02:40;101161.41;;;8.92;39.50
31299;BME280;17927;52.350;13.402;2023-03-17T07:05:07;101168.28;;;8.96;39.65
31299;BME280;17927;52.350;13.402;2023-03-17T07:07:32;101175.00;;;9.02;39.47
31299;BME280;17927;52.350;13.402;2023-03-17T07:09:59;101178.31;;;9.06;39.61
31299;BME280;17927;52.350;13.402;2023-03-17T07:12:25;101169.97;;;9.09;39.49
31299;BME280;17927;52.350;13.402;2023-03-17T07:14:52;101169.59;;;9.13;39.55
31299;BME280;17927;52.350;13.402;2023-03-17T07:17:17;101160.53;;;9.14;39.39
31299;BME280;17927;52.350;13.402;2023-03-17T07:19:43;101153.09;;;9.18;39.37
31299;BME280;17927;52.350;13.402;2023-03-17T07:22:10;101146.59;;;9.21;39.51
31299;BME280;17927;52.350;13.402;2023-03-17T07:24:36;101156.25;;;9.23;39.20
31299;BME280;17927;52.350;13.402;2023-03-17T07:27:03;101144.09;;;9.29;39.37
31299;BME280;17927;52.350;13.402;2023-03-17T07:29:28;101133.81;;;9.34;39.19
31299;BME280;17927;52.350;13.402;2023-03-17T07:31:53;101122.63;;;9.39;39.16
31299;BME280;17927;52.350;13.402;2023-03-17T07:34:19;101135.50;;;9.47;39.10
31299;BME280;17927;52.350;13.402;2023-03-17T07:36:44;101150.78;;;9.57;39.17
31299;BME280;17927;52.350;13.402;2023-03-17T07:39:10;101125.50;;;9.70;39.72
31299;BME280;17927;52.350;13.402;2023-03-17T07:41:35;101116.50;;;9.81;39.27
31299;BME280;17927;52.350;13.402;2023-03-17T07:44:00;101122.97;;;9.89;39.01
31299;BME280;17927;52.350;13.402;2023-03-17T07:46:26;101126.00;;;9.96;38.92
31299;BME280;17927;52.350;13.402;2023-03-17T07:48:51;101134.56;;;10.01;38.73
31299;BME280;17927;52.350;13.402;2023-03-17T07:51:19;101132.47;;;10.05;38.62
31299;BME280;17927;52.350;13.402;2023-03-17T07:53:50;101138.44;;;10.09;38.47
31299;BME280;17927;52.350;13.402;2023-03-17T07:56:15;101128.38;;;10.11;38.46
31299;BME280;17927;52.350;13.402;2023-03-17T07:58:42;101129.94;;;10.13;38.40
31299;BME280;17927;52.350;13.402;2023-03-17T08:01:07;101142.34;;;10.16;38.44
31299;BME280;17927;52.350;13.402;2023-03-17T08:03:33;101137.13;;;10.24;38.41
31299;BME280;17927;52.350;13.402;2023-03-17T08:05:59;101132.78;;;10.33;38.51
31299;BME280;17927;52.350;13.402;2023-03-17T08:08:25;101137.88;;;10.47;38.46
31299;BME280;17927;52.350;13.402;2023-03-17T08:10:56;101128.44;;;10.63;38.74
31299;BME280;17927;52.350;13.402;2023-03-17T08:13:22;101141.50;;;10.79;38.49
31299;BME280;17927;52.350;13.402;2023-03-17T08:15:51;101138.41;;;10.93;38.22
31299;BME280;17927;52.350;13.402;2023-03-17T08:18:16;101129.22;;;11.06;38.07
31299;BME280;17927;52.350;13.402;2023-03-17T08:20:42;101131.94;;;11.16;37.91
31299;BME280;17927;52.350;13.402;2023-03-17T08:23:07;101114.16;;;11.23;37.70
31299;BME280;17927;52.350;13.402;2023-03-17T08:25:32;101118.88;;;11.31;37.54
31299;BME280;17927;52.350;13.402;2023-03-17T08:27:57;101117.19;;;11.39;37.60
31299;BME280;17927;52.350;13.402;2023-03-17T08:30:23;101118.34;;;11.47;37.59
31299;BME280;17927;52.350;13.402;2023-03-17T08:32:48;101116.66;;;11.55;37.69
31299;BME280;17927;52.350;13.402;2023-03-17T08:35:15;101105.69;;;11.67;37.17
31299;BME280;17927;52.350;13.402;2023-03-17T08:37:42;101119.09;;;11.78;37.32
31299;BME280;17927;52.350;13.402;2023-03-17T08:40:09;101129.91;;;11.88;37.03
31299;BME280;17927;52.350;13.402;2023-03-17T08:42:34;101130.50;;;12.01;37.15
31299;BME280;17927;52.350;13.402;2023-03-17T08:45:01;101121.09;;;12.15;36.93
31299;BME280;17927;52.350;13.402;2023-03-17T08:47:28;101100.28;;;12.26;36.88
31299;BME280;17927;52.350;13.402;2023-03-17T08:49:53;101096.81;;;12.33;36.45
31299;BME280;17927;52.350;13.402;2023-03-17T08:52:20;101097.97;;;12.41;36.26
31299;BME280;17927;52.350;13.402;2023-03-17T08:54:46;101100.22;;;12.45;36.33
31299;BME280;17927;52.350;13.402;2023-03-17T08:57:12;101091.66;;;12.50;36.24
31299;BME280;17927;52.350;13.402;2023-03-17T08:59:38;101099.34;;;12.55;36.25
31299;BME280;17927;52.350;13.402;2023-03-17T09:02:03;101100.63;;;12.60;36.15
31299;BME280;17927;52.350;13.402;2023-03-17T09:04:29;101084.75;;;12.66;35.75
31299;BME280;17927;52.350;13.402;2023-03-17T09:06:54;101091.44;;;12.71;35.74
31299;BME280;17927;52.350;13.402;2023-03-17T09:09:19;101087.13;;;12.78;35.90
31299;BME280;17927;52.350;13.402;2023-03-17T09:11:44;101080.41;;;12.83;35.88
31299;BME280;17927;52.350;13.402;2023-03-17T09:14:10;101073.53;;;12.88;35.83
31299;BME280;17927;52.350;13.402;2023-03-17T09:16:35;101076.63;;;12.93;35.86
31299;BME280;17927;52.350;13.402;2023-03-17T09:19:01;101069.91;;;12.98;35.56
31299;BME280;17927;52.350;13.402;2023-03-17T09:21:26;101075.75;;;13.03;35.83
31299;BME280;17927;52.350;13.402;2023-03-17T09:23:52;101079.72;;;13.08;35.75
31299;BME280;17927;52.350;13.402;2023-03-17T09:26:17;101068.25;;;13.15;35.77
31299;BME280;17927;52.350;13.402;2023-03-17T09:28:44;101076.78;;;13.20;35.82
31299;BME280;17927;52.350;13.402;2023-03-17T09:31:10;101070.44;;;13.29;35.87
31299;BME280;17927;52.350;13.402;2023-03-17T09:33:37;101070.25;;;13.40;35.62
31299;BME280;17927;52.350;13.402;2023-03-17T09:36:03;101073.75;;;13.51;35.74
31299;BME280;17927;52.350;13.402;2023-03-17T09:38:28;101063.81;;;13.60;35.74
31299;BME280;17927;52.350;13.402;2023-03-17T09:44:01;101059.41;;;13.77;35.07
31299;BME280;17927;52.350;13.402;2023-03-17T09:46:53;101064.88;;;13.85;35.14
31299;BME280;17927;52.350;13.402;2023-03-17T09:49:28;101058.84;;;13.91;35.17
31299;BME280;17927;52.350;13.402;2023-03-17T09:52:00;101065.34;;;13.98;34.81
31299;BME280;17927;52.350;13.402;2023-03-17T09:54:30;101050.81;;;14.08;34.59
31299;BME280;17927;52.350;13.402;2023-03-17T09:57:03;101045.25;;;14.18;34.82
31299;BME280;17927;52.350;13.402;2023-03-17T09:59:37;101046.16;;;14.26;34.58
31299;BME280;17927;52.350;13.402;2023-03-17T10:02:17;101031.63;;;14.36;34.81
31299;BME280;17927;52.350;13.402;2023-03-17T10:04:45;101041.84;;;14.42;34.58
31299;BME280;17927;52.350;13.402;2023-03-17T10:07:14;101036.28;;;14.52;34.67
31299;BME280;17927;52.350;13.402;2023-03-17T10:09:45;101041.59;;;14.61;34.54
31299;BME280;17927;52.350;13.402;2023-03-17T10:12:37;101038.97;;;14.70;34.41
31299;BME280;17927;52.350;13.402;2023-03-17T10:15:17;101038.81;;;14.80;34.47
31299;BME280;17927;52.350;13.402;2023-03-17T10:17:44;101040.41;;;14.90;34.53
31299;BME280;17927;52.350;13.402;2023-03-17T10:20:26;101036.69;;;15.00;34.16
31299;BME280;17927;52.350;13.402;2023-03-17T10:22:56;101041.97;;;14.93;34.71
31299;BME280;17927;52.350;13.402;2023-03-17T10:25:26;101039.63;;;15.06;34.73
31299;BME280;17927;52.350;13.402;2023-03-17T10:30:37;101037.28;;;15.36;34.39
31299;BME280;17927;52.350;13.402;2023-03-17T10:33:04;101030.50;;;15.49;34.31
31299;BME280;17927;52.350;13.402;2023-03-17T10:35:31;101026.94;;;15.57;33.99
31299;BME280;17927;52.350;13.402;2023-03-17T10:38:00;101019.63;;;15.65;33.82
31299;BME280;17927;52.350;13.402;2023-03-17T10:40:29;101023.00;;;15.76;33.31
31299;BME280;17927;52.350;13.402;2023-03-17T10:43:01;101029.31;;;15.84;33.23
31299;BME280;17927;52.350;13.402;2023-03-17T10:45:32;101030.19;;;15.93;33.06
31299;BME280;17927;52.350;13.402;2023-03-17T10:47:59;101022.19;;;16.00;33.13
31299;BME280;17927;52.350;13.402;2023-03-17T10:50:32;101016.72;;;16.08;33.10
31299;BME280;17927;52.350;13.402;2023-03-17T10:53:03;101017.56;;;16.17;33.20
31299;BME280;17927;52.350;13.402;2023-03-17T10:55:40;100999.47;;;16.24;33.13
31299;BME280;17927;52.350;13.402;2023-03-17T10:58:21;101001.31;;;16.32;33.21
31299;BME280;17927;52.350;13.402;2023-03-17T11:01:15;100998.75;;;16.39;32.98
31299;BME280;17927;52.350;13.402;2023-03-17T11:03:45;100996.00;;;16.47;32.95
31299;BME280;17927;52.350;13.402;2023-03-17T11:06:13;100989.69;;;16.55;32.61
31299;BME280;17927;52.350;13.402;2023-03-17T11:08:48;100988.94;;;16.61;32.44
31299;BME280;17927;52.350;13.402;2023-03-17T11:11:32;100986.56;;;16.66;32.51
31299;BME280;17927;52.350;13.402;2023-03-17T11:14:03;100985.66;;;16.74;32.41
31299;BME280;17927;52.350;13.402;2023-03-17T11:16:33;100987.50;;;16.82;32.30
31299;BME280;17927;52.350;13.402;2023-03-17T11:19:00;100975.00;;;16.87;32.45
31299;BME280;17927;52.350;13.402;2023-03-17T11:21:32;100978.56;;;16.96;32.34
31299;BME280;17927;52.350;13.402;2023-03-17T11:24:09;100984.16;;;17.03;32.06
31299;BME280;17927;52.350;13.402;2023-03-17T11:26:43;100987.03;;;17.10;31.95
31299;BME280;17927;52.350;13.402;2023-03-17T11:29:21;100969.56;;;17.19;32.28
31299;BME280;17927;52.350;13.402;2023-03-17T11:37:04;100971.66;;;17.55;32.59
31299;BME280;17927;52.350;13.402;2023-03-17T11:40:02;100969.34;;;17.67;32.17
31299;BME280;17927;52.350;13.402;2023-03-17T11:42:46;100964.66;;;17.76;31.98
31299;BME280;17927;52.350;13.402;2023-03-17T11:45:33;100962.88;;;17.83;31.73
31299;BME280;17927;52.350;13.402;2023-03-17T11:48:39;100966.56;;;17.90;31.92
31299;BME280;17927;52.350;13.402;2023-03-17T11:51:35;100962.25;;;17.96;31.83
31299;BME280;17927;52.350;13.402;2023-03-17T11:56:56;100957.88;;;18.10;32.09
31299;BME280;17927;52.350;13.402;2023-03-17T11:59:29;100950.78;;;18.16;31.72
31299;BME280;17927;52.350;13.402;2023-03-17T12:04:39;100944.53;;;18.22;31.61
31299;BME280;17927;52.350;13.402;2023-03-17T12:07:24;100946.34;;;18.30;31.71
31299;BME280;17927;52.350;13.402;2023-03-17T12:09:59;100938.03;;;18.38;31.62
31299;BME280;17927;52.350;13.402;2023-03-17T12:12:34;100947.00;;;18.47;31.33
31299;BME280;17927;52.350;13.402;2023-03-17T12:15:02;100944.13;;;18.55;31.61
31299;BME280;17927;52.350;13.402;2023-03-17T12:17:35;100949.81;;;18.68;31.66
31299;BME280;17927;52.350;13.402;2023-03-17T12:20:09;100944.84;;;18.79;31.69
31299;BME280;17927;52.350;13.402;2023-03-17T12:22:56;100938.69;;;18.92;30.91
31299;BME280;17927;52.350;13.402;2023-03-17T12:25:29;100936.31;;;19.04;31.20
31299;BME280;17927;52.350;13.402;2023-03-17T12:28:09;100927.38;;;19.16;30.88
31299;BME280;17927;52.350;13.402;2023-03-17T12:31:01;100918.63;;;19.28;30.76
31299;BME280;17927;52.350;13.402;2023-03-17T12:36:39;100918.38;;;19.44;30.71
31299;BME280;17927;52.350;13.402;2023-03-17T12:39:12;100926.69;;;19.58;30.83
31299;BME280;17927;52.350;13.402;2023-03-17T12:44:59;100904.69;;;19.73;30.05
31299;BME280;17927;52.350;13.402;2023-03-17T12:48:00;100898.38;;;19.79;30.24
31299;BME280;17927;52.350;13.402;2023-03-17T12:55:48;100895.97;;;19.91;30.02
31299;BME280;17927;52.350;13.402;2023-03-17T12:58:24;100900.00;;;19.95;29.61
31299;BME280;17927;52.350;13.402;2023-03-17T13:01:14;100891.41;;;20.05;30.08
31299;BME280;17927;52.350;13.402;2023-03-17T13:04:01;100897.34;;;20.08;29.62
31299;BME280;17927;52.350;13.402;2023-03-17T13:06:30;100895.03;;;20.12;29.63
31299;BME280;17927;52.350;13.402;2023-03-17T13:11:59;100891.88;;;20.15;29.73
31299;BME280;17927;52.350;13.402;2023-03-17T13:14:45;100889.56;;;20.19;29.16
31299;BME280;17927;52.350;13.402;2023-03-17T13:35:40;100875.81;;;20.12;28.59
31299;BME280;17927;52.350;13.402;2023-03-17T13:38:30;100879.03;;;20.16;28.12
31299;BME280;17927;52.350;13.402;2023-03-17T13:41:28;100870.81;;;20.16;28.42
31299;BME280;17927;52.350;13.402;2023-03-17T13:44:27;100863.19;;;20.18;28.02